TOURFACTS.DK  
Stats and Facts from Tour de France.

Tour de France 2018 starts in 316 days
  Riders   Stages   Teams   Summits   Yearly  


 
Search by year

 2017 - St. 21:  14824 starters.
  5131 different riders.
  634 teams.
  2232 stages.
  454 restdays.
  439589.60 km.
  5653 abandonnees.


Top 3
Christopher Froome86:20:55
Rigoberto Uran86:21:49
Romain Bardet86:23:15
Warren Barguil169 pt.
Primoz Roglic80 pt.
Thomas De Gendt64 pt.
Michael Matthews359 pt.
André Greipel234 pt.
Edvald Boasson Hagen220 pt.
Simon Yates86:27:09
Louis Meintjes86:29:15
Emanuel Buchmann86:54:16
Facts from Tour de France 1938
  |   Stages.  |   Stage winners.  |   Days in yellow  |   Average speed.  |   Route.  |   Teams.  |   All riders.  |   Rookies.  |   Withdrawls.  |  

  |   GC.  |   Polka  |   Green  |   White  |   Summits. (In tour)  |   Summits. (Points)  |   Miscellaneous.  |  

Stage 2 on 06 - 07 - 1938
         Owning:    Jean Majerus    
Pick a stage:  1 2 3 4a 4b 4c 5 6a 6b 7 8 9 10a 10b 10c 11 12 13 14 15 16 17a 17b 18 19 20a 20b 20c 21
  CaenSaint-Brieuc | Dist: 237.00 km.

Average speed for all riders in stage:  33,142 km./hr.
    Place:Name:Team:Time:Km/h:
LUXJean MajerusLUXLuxembourg07:01:07  +  00:00:00=33,767 
FRAJean-Marie GoasmatFRAFrance07:01:07  +  00:00:00=33,767 
GEROtto WeckerlingDEUGermany07:01:07  +  00:00:00=33,767 
4 FRAGeorges SpeicherFRAFrance07:01:07  +  00:00:00=33,767 
5 FRAMathias ClemensLUXLuxembourg07:01:07  +  00:00:00=33,767 
6 FRAAntonin MagneFRAFrance07:01:07  +  00:00:00=33,767 
7 FRAAndré LeducqFRACadets07:01:07  +  00:00:00=33,767 
8 GERHeinz WenglerDEUGermany07:01:07  +  00:00:00=33,767 
9 BELJules LowieBELBelgium07:01:07  +  00:00:00=33,767 
10 FRAVictor CossonFRAFrance07:01:07  +  00:00:00=33,767 
11 FRAAlbert BourlonFRABluets07:02:07  +  00:01:00=33,687 
12 FRAJoseph GoutorbeFRABluets07:03:46  +  00:02:39=33,556 
13 NEDPiet Van NekNLDHolland07:04:14  +  00:03:07=33,519 
14 FRASylvain MarcaillouFRAFrance07:04:14  +  00:03:07=33,519 
15 BELFélicien VervaeckeBELBelgium07:04:14  +  00:03:07=33,519 
16 FRAFabien GalateauFRACadets07:04:14  +  00:03:07=33,519 
17 FRARobert TanneveauFRACadets07:04:14  +  00:03:07=33,519 
18 GERKarl HeideDEUGermany07:04:14  +  00:03:07=33,519 
19 GERWilli OberbeckDEUGermany07:04:14  +  00:03:07=33,519 
20 ITASettimo SimoniniITAItaly07:04:29  +  00:03:22=33,500 
21 ITAMario ViciniITAItaly07:04:29  +  00:03:22=33,500 
22 BELAlbertin DisseauxBELBelgium07:04:29  +  00:03:22=33,500 
23 FRARaoul LesueurFRACadets07:04:29  +  00:03:22=33,500 
24 FRAAuguste MalletFRAFrance07:05:37  +  00:04:30=33,410 
25 FRAYvan MarieFRACadets07:05:44  +  00:04:37=33,401 
26 ESPRafael RamosESPSpain07:05:44  +  00:04:37=33,401 
27 SUIEdgar HehlenCHESwitzerland07:05:44  +  00:04:37=33,401 
28 NEDAntoon Van SchendelNLDHolland07:06:12  +  00:05:05=33,365 
29 BELSylvère MaesBELBelgium07:06:19  +  00:05:12=33,355 
30 BELMarcel KintBELBelgium07:06:19  +  00:05:12=33,355 
31 BELÉloi MeulenbergBELBelgium07:06:19  +  00:05:12=33,355 
32 BELEmile Masson jr.BELBelgium07:06:19  +  00:05:12=33,355 
33 BELEdward VissersBELBelgium07:06:19  +  00:05:12=33,355 
34 BELConstant LauwersBELBelgium07:06:19  +  00:05:12=33,355 
35 ITAGino BartaliITAItaly07:06:19  +  00:05:12=33,355 
36 ITAAldo BiniITAItaly07:06:19  +  00:05:12=33,355 
37 ITAEnrico MolloITAItaly07:06:19  +  00:05:12=33,355 
38 ITAGlauco ServadeiITAItaly07:06:19  +  00:05:12=33,355 
39 BELRené PédroliCHESwitzerland07:06:19  +  00:05:12=33,355 
40 SUITheo PerretCHESwitzerland07:06:19  +  00:05:12=33,355 
41 FRARaymond PassatFRACadets07:06:19  +  00:05:12=33,355 
42 SUIAlbert KnuttiCHESwitzerland07:06:19  +  00:05:12=33,355 
43 LUXFrançois NeuensLUXLuxembourg07:06:19  +  00:05:12=33,355 
44 NEDJanus HellemonsNLDHolland07:06:19  +  00:05:12=33,355 
45 FRAPierre ClemensLUXLuxembourg07:06:19  +  00:05:12=33,355 
46 FRALucien Le GuevelFRABluets07:06:19  +  00:05:12=33,355 
47 SUIBruno CariniFRACadets07:06:19  +  00:05:12=33,355 
48 ITAOreste BernardoniFRABluets07:06:19  +  00:05:12=33,355 
49 FRAJules RossiITAItaly07:06:19  +  00:05:12=33,355 
50 ESPJulián BerrenderoESPSpain07:06:19  +  00:05:12=33,355 
51 FRACamille LeroyFRABluets07:06:19  +  00:05:12=33,355 
52 ITAGiuseppe MartanoITAItaly07:06:19  +  00:05:12=33,355 
53 ITAPierre SpaperiFRABluets07:06:19  +  00:05:12=33,355 
54 FRAGaston GrimbertFRABluets07:06:19  +  00:05:12=33,355 
55 FRAEloi TassinFRABluets07:06:19  +  00:05:12=33,355 
56 FRAMarcel LaurentFRAFrance07:06:19  +  00:05:12=33,355 
57 FRAPierre JaminetFRAFrance07:06:19  +  00:05:12=33,355 
58 GERReinhold WendelDEUGermany07:06:19  +  00:05:12=33,355 
59 ESPMariano CañardoESPSpain07:06:19  +  00:05:12=33,355 
60 ITAGiordano CotturITAItaly07:06:19  +  00:05:12=33,355 
61 GERJosef ArentsDEUGermany07:06:19  +  00:05:12=33,355 
62 ITADante GianelloFRABluets07:06:19  +  00:05:12=33,355 
63 GERHerbert HauswaldDEUGermany07:07:27  +  00:06:20=33,267 
64 GERFritz SchellerDEUGermany07:07:27  +  00:06:20=33,267 
65 FRAGeorges NaisseFRAFrance07:07:50  +  00:06:43=33,237 
66 ESPEmiliano AlvarezESPSpain07:07:50  +  00:06:43=33,237 
67 FRAPierre GallienFRAFrance07:08:14  +  00:07:07=33,206 
68 NEDTheo MiddelkampNLDHolland07:08:39  +  00:07:32=33,174 
69 LUXArsène MerschLUXLuxembourg07:08:39  +  00:07:32=33,174 
70 SUIRaymond LouviotFRACadets07:09:19  +  00:08:12=33,122 
71 BELRene WalschotBELBelgium07:09:19  +  00:08:12=33,122 
72 FRAJean FréchautFRAFrance07:12:49  +  00:11:42=32,855 
73 BELFrançois NeuvilleBELBelgium07:16:12  +  00:15:05=32,600 
74 LUXChristophe DidierLUXLuxembourg07:16:12  +  00:15:05=32,600 
75 SUIPaul EgliCHESwitzerland07:17:34  +  00:16:27=32,498 
76 ITAVasco BergamaschiITAItaly07:19:14  +  00:18:07=32,375 
77 GERPaul SeidelDEUGermany07:20:34  +  00:19:27=32,277 
78 FRAAndre LeforgeFRABluets07:20:34  +  00:19:27=32,277 
79 GERPaul LanghoffDEUGermany07:20:34  +  00:19:27=32,277 
80 GERHermann SchildDEUGermany07:20:34  +  00:19:27=32,277 
81 FRALucien LamureFRABluets07:20:34  +  00:19:27=32,277 
82 FRARobert OubronFRACadets07:20:34  +  00:19:27=32,277 
83 BELTheo PirmezBELBelgium07:20:34  +  00:19:27=32,277 
84 FRASauveur DucazeauxFRACadets07:20:34  +  00:19:27=32,277 
85 ITALuigi IntrozziITAItaly07:24:47  +  00:23:40=31,971 
86 ITANello TroggiITAItaly07:24:47  +  00:23:40=31,971 
87 NEDGerrit SchulteNLDHolland07:28:40  +  00:27:33=31,694 
88 SUIBruno BesanaCHESwitzerland07:28:40  +  00:27:33=31,694 
89 NEDJef DominicusNLDHolland07:29:28  +  00:28:21=31,637 
90 FRAJean FontenayFRACadets07:29:28  +  00:28:21=31,637 
91 ESPJacques AlzineESPSpain07:29:28  +  00:28:21=31,637 

Withdrawls: 3
 
Rider
Team
Reason
27  GERFritz RulandDEUGermanyDid not finish
47  FRAPaul MayeFRAFranceDid not finish
74  FRARené ViettoFRACadetsDid not finish

Todays birthdays.

1924  Siro Bianchi
1930  Renzo Accordi
1933  Manfred Donike
1952  Cristóbal Pérez
1958  Rafaël Tolosa
1960  Hubert Seiz
1964  Johan Bruyneel
1969  Enrico Poitschke